sensor_id;sensor_type;location;lat;lon;timestamp;P1;durP1;ratioP1;P2;durP2;ratioP2
33403;SDS011;19751;40.274;18.268;2024-03-06T00:02:25;24.80;;;14.10;;
33403;SDS011;19751;40.274;18.268;2024-03-06T00:04:51;22.25;;;14.32;;
33403;SDS011;19751;40.274;18.268;2024-03-06T00:07:16;29.88;;;13.93;;
33403;SDS011;19751;40.274;18.268;2024-03-06T00:09:42;24.13;;;13.98;;
33403;SDS011;19751;40.274;18.268;2024-03-06T00:12:08;24.13;;;13.80;;
33403;SDS011;19751;40.274;18.268;2024-03-06T00:14:33;25.35;;;15.38;;
33403;SDS011;19751;40.274;18.268;2024-03-06T00:17:01;25.30;;;16.52;;
33403;SDS011;19751;40.274;18.268;2024-03-06T00:19:29;33.75;;;16.08;;
33403;SDS011;19751;40.274;18.268;2024-03-06T00:21:55;24.60;;;14.68;;
33403;SDS011;19751;40.274;18.268;2024-03-06T00:24:20;27.10;;;15.75;;
33403;SDS011;19751;40.274;18.268;2024-03-06T00:26:48;26.05;;;14.32;;
33403;SDS011;19751;40.274;18.268;2024-03-06T00:29:13;23.73;;;13.43;;
33403;SDS011;19751;40.274;18.268;2024-03-06T00:31:43;26.50;;;15.40;;
33403;SDS011;19751;40.274;18.268;2024-03-06T00:34:12;27.20;;;15.30;;
33403;SDS011;19751;40.274;18.268;2024-03-06T00:36:42;24.98;;;15.13;;
33403;SDS011;19751;40.274;18.268;2024-03-06T00:39:08;27.50;;;15.77;;
33403;SDS011;19751;40.274;18.268;2024-03-06T00:41:35;29.17;;;16.17;;
33403;SDS011;19751;40.274;18.268;2024-03-06T00:44:00;23.92;;;13.40;;
33403;SDS011;19751;40.274;18.268;2024-03-06T00:46:26;23.00;;;12.57;;
33403;SDS011;19751;40.274;18.268;2024-03-06T00:48:52;24.98;;;13.60;;
33403;SDS011;19751;40.274;18.268;2024-03-06T00:51:17;22.17;;;14.48;;
33403;SDS011;19751;40.274;18.268;2024-03-06T00:53:44;22.92;;;13.43;;
33403;SDS011;19751;40.274;18.268;2024-03-06T00:56:09;26.52;;;13.15;;
33403;SDS011;19751;40.274;18.268;2024-03-06T00:58:35;25.90;;;13.18;;
33403;SDS011;19751;40.274;18.268;2024-03-06T01:01:00;21.95;;;11.98;;
33403;SDS011;19751;40.274;18.268;2024-03-06T01:03:26;20.75;;;13.25;;
33403;SDS011;19751;40.274;18.268;2024-03-06T01:05:51;26.70;;;13.73;;
33403;SDS011;19751;40.274;18.268;2024-03-06T01:08:18;21.75;;;12.25;;
33403;SDS011;19751;40.274;18.268;2024-03-06T01:10:44;21.83;;;13.10;;
33403;SDS011;19751;40.274;18.268;2024-03-06T01:13:09;23.77;;;13.10;;
33403;SDS011;19751;40.274;18.268;2024-03-06T01:15:37;21.63;;;13.98;;
33403;SDS011;19751;40.274;18.268;2024-03-06T01:18:03;33.47;;;13.40;;
33403;SDS011;19751;40.274;18.268;2024-03-06T01:20:29;20.58;;;10.40;;
33403;SDS011;19751;40.274;18.268;2024-03-06T01:22:54;19.70;;;10.23;;
33403;SDS011;19751;40.274;18.268;2024-03-06T01:25:20;19.13;;;10.93;;
33403;SDS011;19751;40.274;18.268;2024-03-06T01:27:47;20.55;;;11.32;;
33403;SDS011;19751;40.274;18.268;2024-03-06T01:30:14;19.13;;;11.73;;
33403;SDS011;19751;40.274;18.268;2024-03-06T01:32:39;16.33;;;10.15;;
33403;SDS011;19751;40.274;18.268;2024-03-06T01:35:05;18.52;;;11.13;;
33403;SDS011;19751;40.274;18.268;2024-03-06T01:37:31;16.17;;;10.50;;
33403;SDS011;19751;40.274;18.268;2024-03-06T01:39:57;16.50;;;10.70;;
33403;SDS011;19751;40.274;18.268;2024-03-06T01:42:22;16.83;;;10.38;;
33403;SDS011;19751;40.274;18.268;2024-03-06T01:44:49;15.13;;;10.32;;
33403;SDS011;19751;40.274;18.268;2024-03-06T01:47:14;20.83;;;9.93;;
33403;SDS011;19751;40.274;18.268;2024-03-06T01:49:40;14.93;;;10.02;;
33403;SDS011;19751;40.274;18.268;2024-03-06T01:52:07;17.27;;;9.75;;
33403;SDS011;19751;40.274;18.268;2024-03-06T01:54:37;17.20;;;9.90;;
33403;SDS011;19751;40.274;18.268;2024-03-06T01:57:03;15.30;;;9.70;;
33403;SDS011;19751;40.274;18.268;2024-03-06T01:59:29;16.95;;;8.13;;
33403;SDS011;19751;40.274;18.268;2024-03-06T02:01:55;15.93;;;9.88;;
33403;SDS011;19751;40.274;18.268;2024-03-06T02:04:21;18.27;;;10.35;;
33403;SDS011;19751;40.274;18.268;2024-03-06T02:06:48;18.08;;;10.32;;
33403;SDS011;19751;40.274;18.268;2024-03-06T02:09:14;15.25;;;9.23;;
33403;SDS011;19751;40.274;18.268;2024-03-06T02:11:40;14.45;;;9.05;;
33403;SDS011;19751;40.274;18.268;2024-03-06T02:14:07;16.10;;;9.27;;
33403;SDS011;19751;40.274;18.268;2024-03-06T02:16:35;16.13;;;9.23;;
33403;SDS011;19751;40.274;18.268;2024-03-06T02:19:07;14.75;;;9.63;;
33403;SDS011;19751;40.274;18.268;2024-03-06T02:21:33;15.30;;;9.32;;
33403;SDS011;19751;40.274;18.268;2024-03-06T02:23:59;15.52;;;9.43;;
33403;SDS011;19751;40.274;18.268;2024-03-06T02:26:24;19.33;;;10.05;;
33403;SDS011;19751;40.274;18.268;2024-03-06T02:28:51;18.05;;;10.60;;
33403;SDS011;19751;40.274;18.268;2024-03-06T02:31:17;17.55;;;10.27;;
33403;SDS011;19751;40.274;18.268;2024-03-06T02:33:45;13.38;;;9.15;;
33403;SDS011;19751;40.274;18.268;2024-03-06T02:36:15;10.82;;;9.00;;
33403;SDS011;19751;40.274;18.268;2024-03-06T02:38:44;14.02;;;9.55;;
33403;SDS011;19751;40.274;18.268;2024-03-06T02:41:10;12.93;;;8.55;;
33403;SDS011;19751;40.274;18.268;2024-03-06T02:43:37;13.82;;;8.85;;
33403;SDS011;19751;40.274;18.268;2024-03-06T02:46:03;17.50;;;8.82;;
33403;SDS011;19751;40.274;18.268;2024-03-06T02:48:29;16.05;;;9.40;;
33403;SDS011;19751;40.274;18.268;2024-03-06T02:50:55;16.20;;;9.95;;
33403;SDS011;19751;40.274;18.268;2024-03-06T02:53:21;18.08;;;9.02;;
33403;SDS011;19751;40.274;18.268;2024-03-06T02:55:47;13.88;;;8.57;;
33403;SDS011;19751;40.274;18.268;2024-03-06T02:58:13;14.95;;;8.98;;
33403;SDS011;19751;40.274;18.268;2024-03-06T03:00:42;12.70;;;8.23;;
33403;SDS011;19751;40.274;18.268;2024-03-06T03:03:08;13.30;;;8.38;;
33403;SDS011;19751;40.274;18.268;2024-03-06T03:05:37;12.90;;;9.75;;
33403;SDS011;19751;40.274;18.268;2024-03-06T03:08:03;12.65;;;7.60;;
33403;SDS011;19751;40.274;18.268;2024-03-06T03:10:29;10.98;;;8.15;;
33403;SDS011;19751;40.274;18.268;2024-03-06T03:12:54;10.63;;;7.22;;
33403;SDS011;19751;40.274;18.268;2024-03-06T03:15:20;14.13;;;8.32;;
33403;SDS011;19751;40.274;18.268;2024-03-06T03:17:45;15.50;;;8.55;;
33403;SDS011;19751;40.274;18.268;2024-03-06T03:20:11;11.20;;;7.03;;
33403;SDS011;19751;40.274;18.268;2024-03-06T03:22:37;11.18;;;6.85;;
33403;SDS011;19751;40.274;18.268;2024-03-06T03:25:07;12.25;;;7.50;;
33403;SDS011;19751;40.274;18.268;2024-03-06T03:27:33;10.50;;;6.53;;
33403;SDS011;19751;40.274;18.268;2024-03-06T03:29:59;13.07;;;7.43;;
33403;SDS011;19751;40.274;18.268;2024-03-06T03:32:24;11.75;;;7.07;;
33403;SDS011;19751;40.274;18.268;2024-03-06T03:34:50;8.63;;;6.65;;
33403;SDS011;19751;40.274;18.268;2024-03-06T03:37:15;11.70;;;6.45;;
33403;SDS011;19751;40.274;18.268;2024-03-06T03:39:43;9.23;;;6.63;;
33403;SDS011;19751;40.274;18.268;2024-03-06T03:42:09;8.82;;;6.05;;
33403;SDS011;19751;40.274;18.268;2024-03-06T03:44:34;9.93;;;6.15;;
33403;SDS011;19751;40.274;18.268;2024-03-06T03:47:00;10.10;;;7.90;;
33403;SDS011;19751;40.274;18.268;2024-03-06T03:49:25;10.25;;;7.40;;
33403;SDS011;19751;40.274;18.268;2024-03-06T03:51:51;14.45;;;6.97;;
33403;SDS011;19751;40.274;18.268;2024-03-06T03:54:16;10.70;;;6.30;;
33403;SDS011;19751;40.274;18.268;2024-03-06T03:56:42;12.73;;;7.10;;
33403;SDS011;19751;40.274;18.268;2024-03-06T03:59:07;10.23;;;6.50;;
33403;SDS011;19751;40.274;18.268;2024-03-06T04:01:33;9.07;;;6.55;;
33403;SDS011;19751;40.274;18.268;2024-03-06T04:03:58;8.52;;;6.40;;
33403;SDS011;19751;40.274;18.268;2024-03-06T04:06:24;13.13;;;6.43;;
33403;SDS011;19751;40.274;18.268;2024-03-06T04:08:50;10.48;;;6.53;;
33403;SDS011;19751;40.274;18.268;2024-03-06T04:11:15;9.90;;;6.55;;
33403;SDS011;19751;40.274;18.268;2024-03-06T04:13:41;7.95;;;6.88;;
33403;SDS011;19751;40.274;18.268;2024-03-06T04:16:06;8.40;;;6.32;;
33403;SDS011;19751;40.274;18.268;2024-03-06T04:18:32;8.68;;;6.30;;
33403;SDS011;19751;40.274;18.268;2024-03-06T04:21:04;10.02;;;6.30;;
33403;SDS011;19751;40.274;18.268;2024-03-06T04:23:30;11.45;;;6.28;;
33403;SDS011;19751;40.274;18.268;2024-03-06T04:25:56;7.75;;;5.65;;
33403;SDS011;19751;40.274;18.268;2024-03-06T04:28:21;8.52;;;6.60;;
33403;SDS011;19751;40.274;18.268;2024-03-06T04:30:47;11.02;;;6.10;;
33403;SDS011;19751;40.274;18.268;2024-03-06T04:33:12;6.20;;;5.30;;
33403;SDS011;19751;40.274;18.268;2024-03-06T04:35:40;10.95;;;5.82;;
33403;SDS011;19751;40.274;18.268;2024-03-06T04:38:06;7.13;;;5.15;;
33403;SDS011;19751;40.274;18.268;2024-03-06T04:40:31;6.85;;;4.75;;
33403;SDS011;19751;40.274;18.268;2024-03-06T04:42:57;7.22;;;5.60;;
33403;SDS011;19751;40.274;18.268;2024-03-06T04:45:23;7.47;;;6.40;;
33403;SDS011;19751;40.274;18.268;2024-03-06T04:47:48;6.65;;;5.93;;
33403;SDS011;19751;40.274;18.268;2024-03-06T04:50:14;9.13;;;4.97;;
33403;SDS011;19751;40.274;18.268;2024-03-06T04:52:40;9.00;;;6.55;;
33403;SDS011;19751;40.274;18.268;2024-03-06T04:55:06;9.20;;;5.55;;
33403;SDS011;19751;40.274;18.268;2024-03-06T04:57:35;7.47;;;5.65;;
33403;SDS011;19751;40.274;18.268;2024-03-06T05:00:01;9.10;;;5.22;;
33403;SDS011;19751;40.274;18.268;2024-03-06T05:02:33;7.35;;;5.10;;
33403;SDS011;19751;40.274;18.268;2024-03-06T05:05:01;15.68;;;8.13;;
33403;SDS011;19751;40.274;18.268;2024-03-06T05:07:30;8.38;;;6.10;;
33403;SDS011;19751;40.274;18.268;2024-03-06T05:09:57;12.98;;;6.57;;
33403;SDS011;19751;40.274;18.268;2024-03-06T05:12:24;10.23;;;5.63;;
33403;SDS011;19751;40.274;18.268;2024-03-06T05:14:50;9.27;;;6.32;;
33403;SDS011;19751;40.274;18.268;2024-03-06T05:17:16;9.13;;;6.32;;
33403;SDS011;19751;40.274;18.268;2024-03-06T05:19:43;8.77;;;5.63;;
33403;SDS011;19751;40.274;18.268;2024-03-06T05:22:09;10.43;;;6.20;;
33403;SDS011;19751;40.274;18.268;2024-03-06T05:24:36;11.40;;;7.15;;
33403;SDS011;19751;40.274;18.268;2024-03-06T05:27:03;13.50;;;7.28;;
33403;SDS011;19751;40.274;18.268;2024-03-06T05:29:29;7.95;;;6.93;;
33403;SDS011;19751;40.274;18.268;2024-03-06T05:31:54;9.45;;;6.63;;
33403;SDS011;19751;40.274;18.268;2024-03-06T05:34:21;10.02;;;6.20;;
33403;SDS011;19751;40.274;18.268;2024-03-06T05:36:50;11.23;;;6.50;;
33403;SDS011;19751;40.274;18.268;2024-03-06T05:39:15;11.90;;;6.75;;
33403;SDS011;19751;40.274;18.268;2024-03-06T05:41:42;10.63;;;7.72;;
33403;SDS011;19751;40.274;18.268;2024-03-06T05:44:09;12.98;;;8.88;;
33403;SDS011;19751;40.274;18.268;2024-03-06T05:46:35;17.83;;;12.15;;
33403;SDS011;19751;40.274;18.268;2024-03-06T05:49:01;12.25;;;8.55;;
33403;SDS011;19751;40.274;18.268;2024-03-06T05:51:27;13.48;;;8.10;;
33403;SDS011;19751;40.274;18.268;2024-03-06T05:53:53;12.50;;;8.43;;
33403;SDS011;19751;40.274;18.268;2024-03-06T05:56:18;12.18;;;8.45;;
33403;SDS011;19751;40.274;18.268;2024-03-06T05:58:44;14.27;;;9.10;;
33403;SDS011;19751;40.274;18.268;2024-03-06T06:01:17;14.85;;;8.45;;
33403;SDS011;19751;40.274;18.268;2024-03-06T06:03:46;10.98;;;7.28;;
33403;SDS011;19751;40.274;18.268;2024-03-06T06:06:15;14.93;;;7.55;;
33403;SDS011;19751;40.274;18.268;2024-03-06T06:08:42;10.27;;;6.60;;
33403;SDS011;19751;40.274;18.268;2024-03-06T06:11:09;12.88;;;7.10;;
33403;SDS011;19751;40.274;18.268;2024-03-06T06:13:35;14.95;;;6.78;;
33403;SDS011;19751;40.274;18.268;2024-03-06T06:16:00;15.02;;;7.80;;
33403;SDS011;19751;40.274;18.268;2024-03-06T06:18:28;10.95;;;7.22;;
33403;SDS011;19751;40.274;18.268;2024-03-06T06:20:54;10.85;;;5.65;;
33403;SDS011;19751;40.274;18.268;2024-03-06T06:23:19;12.52;;;6.18;;
33403;SDS011;19751;40.274;18.268;2024-03-06T06:25:45;8.30;;;5.47;;
33403;SDS011;19751;40.274;18.268;2024-03-06T06:28:11;11.30;;;5.90;;
33403;SDS011;19751;40.274;18.268;2024-03-06T06:30:36;8.07;;;5.88;;
33403;SDS011;19751;40.274;18.268;2024-03-06T06:33:03;8.23;;;5.93;;
33403;SDS011;19751;40.274;18.268;2024-03-06T06:35:29;9.30;;;5.15;;
33403;SDS011;19751;40.274;18.268;2024-03-06T06:37:55;9.77;;;5.50;;
33403;SDS011;19751;40.274;18.268;2024-03-06T06:40:21;6.65;;;4.70;;
33403;SDS011;19751;40.274;18.268;2024-03-06T06:42:47;7.00;;;4.90;;
33403;SDS011;19751;40.274;18.268;2024-03-06T06:45:17;13.77;;;6.28;;
33403;SDS011;19751;40.274;18.268;2024-03-06T06:47:43;7.13;;;4.82;;
33403;SDS011;19751;40.274;18.268;2024-03-06T06:50:09;9.63;;;5.10;;
33403;SDS011;19751;40.274;18.268;2024-03-06T06:52:36;8.68;;;4.70;;
33403;SDS011;19751;40.274;18.268;2024-03-06T06:55:03;9.85;;;4.57;;
33403;SDS011;19751;40.274;18.268;2024-03-06T06:57:29;6.30;;;4.28;;
33403;SDS011;19751;40.274;18.268;2024-03-06T06:59:55;6.60;;;4.60;;
33403;SDS011;19751;40.274;18.268;2024-03-06T07:02:20;8.77;;;4.93;;
33403;SDS011;19751;40.274;18.268;2024-03-06T07:04:47;6.32;;;4.65;;
33403;SDS011;19751;40.274;18.268;2024-03-06T07:07:13;8.98;;;5.60;;
33403;SDS011;19751;40.274;18.268;2024-03-06T07:09:39;11.60;;;5.70;;
33403;SDS011;19751;40.274;18.268;2024-03-06T07:12:05;5.57;;;4.47;;
33403;SDS011;19751;40.274;18.268;2024-03-06T07:14:30;8.48;;;5.13;;
33403;SDS011;19751;40.274;18.268;2024-03-06T07:16:56;17.65;;;6.55;;
33403;SDS011;19751;40.274;18.268;2024-03-06T07:19:21;9.48;;;4.68;;
33403;SDS011;19751;40.274;18.268;2024-03-06T07:21:47;10.70;;;6.30;;
33403;SDS011;19751;40.274;18.268;2024-03-06T07:24:12;15.05;;;4.82;;
33403;SDS011;19751;40.274;18.268;2024-03-06T07:26:38;14.65;;;5.38;;
33403;SDS011;19751;40.274;18.268;2024-03-06T07:29:03;7.40;;;3.88;;
33403;SDS011;19751;40.274;18.268;2024-03-06T07:31:29;10.32;;;3.80;;
33403;SDS011;19751;40.274;18.268;2024-03-06T07:33:54;10.73;;;4.43;;
33403;SDS011;19751;40.274;18.268;2024-03-06T07:36:20;11.15;;;5.38;;
33403;SDS011;19751;40.274;18.268;2024-03-06T07:38:47;5.88;;;4.40;;
33403;SDS011;19751;40.274;18.268;2024-03-06T07:41:12;10.40;;;5.00;;
33403;SDS011;19751;40.274;18.268;2024-03-06T07:43:38;10.50;;;5.35;;
33403;SDS011;19751;40.274;18.268;2024-03-06T07:46:04;7.53;;;5.15;;
33403;SDS011;19751;40.274;18.268;2024-03-06T07:48:36;8.10;;;4.35;;
33403;SDS011;19751;40.274;18.268;2024-03-06T07:51:02;6.13;;;5.13;;
33403;SDS011;19751;40.274;18.268;2024-03-06T07:53:28;12.05;;;4.63;;
33403;SDS011;19751;40.274;18.268;2024-03-06T07:55:53;7.60;;;4.90;;
33403;SDS011;19751;40.274;18.268;2024-03-06T07:58:19;17.05;;;6.85;;
33403;SDS011;19751;40.274;18.268;2024-03-06T08:00:46;11.43;;;6.28;;
33403;SDS011;19751;40.274;18.268;2024-03-06T08:03:11;15.38;;;6.75;;
33403;SDS011;19751;40.274;18.268;2024-03-06T08:05:38;13.05;;;6.55;;
33403;SDS011;19751;40.274;18.268;2024-03-06T08:08:04;12.07;;;6.00;;
33403;SDS011;19751;40.274;18.268;2024-03-06T08:10:30;9.98;;;6.15;;
33403;SDS011;19751;40.274;18.268;2024-03-06T08:12:56;14.70;;;6.15;;
33403;SDS011;19751;40.274;18.268;2024-03-06T08:15:22;9.75;;;7.47;;
33403;SDS011;19751;40.274;18.268;2024-03-06T08:17:48;10.20;;;6.10;;
33403;SDS011;19751;40.274;18.268;2024-03-06T08:20:14;10.32;;;6.63;;
33403;SDS011;19751;40.274;18.268;2024-03-06T08:22:41;11.70;;;6.45;;
33403;SDS011;19751;40.274;18.268;2024-03-06T08:25:08;13.18;;;7.18;;
33403;SDS011;19751;40.274;18.268;2024-03-06T08:27:34;20.27;;;6.45;;
33403;SDS011;19751;40.274;18.268;2024-03-06T08:30:01;16.33;;;6.85;;
33403;SDS011;19751;40.274;18.268;2024-03-06T08:32:31;16.95;;;7.40;;
33403;SDS011;19751;40.274;18.268;2024-03-06T08:35:10;11.52;;;6.53;;
33403;SDS011;19751;40.274;18.268;2024-03-06T08:37:40;15.60;;;8.23;;
33403;SDS011;19751;40.274;18.268;2024-03-06T08:40:06;12.45;;;8.35;;
33403;SDS011;19751;40.274;18.268;2024-03-06T08:42:35;13.57;;;6.57;;
33403;SDS011;19751;40.274;18.268;2024-03-06T08:45:00;14.82;;;8.35;;
33403;SDS011;19751;40.274;18.268;2024-03-06T08:47:26;11.77;;;8.65;;
33403;SDS011;19751;40.274;18.268;2024-03-06T08:49:52;11.52;;;6.22;;
33403;SDS011;19751;40.274;18.268;2024-03-06T08:52:17;14.85;;;8.55;;
33403;SDS011;19751;40.274;18.268;2024-03-06T08:54:43;14.68;;;7.88;;
33403;SDS011;19751;40.274;18.268;2024-03-06T08:57:09;14.52;;;7.85;;
33403;SDS011;19751;40.274;18.268;2024-03-06T08:59:35;15.80;;;7.90;;
33403;SDS011;19751;40.274;18.268;2024-03-06T09:02:11;11.65;;;7.15;;
33403;SDS011;19751;40.274;18.268;2024-03-06T09:04:41;14.60;;;7.85;;
33403;SDS011;19751;40.274;18.268;2024-03-06T09:07:07;23.67;;;10.15;;
33403;SDS011;19751;40.274;18.268;2024-03-06T09:09:33;10.93;;;7.30;;
33403;SDS011;19751;40.274;18.268;2024-03-06T09:12:00;12.43;;;8.10;;
33403;SDS011;19751;40.274;18.268;2024-03-06T09:14:32;14.77;;;7.22;;
33403;SDS011;19751;40.274;18.268;2024-03-06T09:17:00;13.90;;;6.43;;
33403;SDS011;19751;40.274;18.268;2024-03-06T09:19:26;12.63;;;6.78;;
33403;SDS011;19751;40.274;18.268;2024-03-06T09:21:52;9.13;;;6.53;;
33403;SDS011;19751;40.274;18.268;2024-03-06T09:24:20;16.05;;;7.38;;
33403;SDS011;19751;40.274;18.268;2024-03-06T09:26:48;16.77;;;7.55;;
33403;SDS011;19751;40.274;18.268;2024-03-06T09:29:14;10.95;;;7.13;;
33403;SDS011;19751;40.274;18.268;2024-03-06T09:31:40;13.50;;;6.40;;
33403;SDS011;19751;40.274;18.268;2024-03-06T09:34:06;13.82;;;6.97;;
33403;SDS011;19751;40.274;18.268;2024-03-06T09:36:31;9.43;;;6.45;;
33403;SDS011;19751;40.274;18.268;2024-03-06T09:38:58;10.48;;;5.18;;
33403;SDS011;19751;40.274;18.268;2024-03-06T09:41:24;12.75;;;5.78;;
33403;SDS011;19751;40.274;18.268;2024-03-06T09:43:50;18.48;;;8.38;;
33403;SDS011;19751;40.274;18.268;2024-03-06T09:46:16;16.10;;;8.57;;
33403;SDS011;19751;40.274;18.268;2024-03-06T09:48:45;13.50;;;5.65;;
33403;SDS011;19751;40.274;18.268;2024-03-06T09:51:11;10.45;;;5.45;;
33403;SDS011;19751;40.274;18.268;2024-03-06T09:53:39;10.38;;;4.93;;
33403;SDS011;19751;40.274;18.268;2024-03-06T09:56:05;10.73;;;4.70;;
33403;SDS011;19751;40.274;18.268;2024-03-06T09:58:35;9.65;;;5.57;;
33403;SDS011;19751;40.274;18.268;2024-03-06T10:01:00;12.13;;;5.38;;
33403;SDS011;19751;40.274;18.268;2024-03-06T10:03:32;8.38;;;4.60;;
33403;SDS011;19751;40.274;18.268;2024-03-06T10:05:58;8.20;;;4.93;;
33403;SDS011;19751;40.274;18.268;2024-03-06T10:08:24;8.07;;;4.90;;
33403;SDS011;19751;40.274;18.268;2024-03-06T10:10:51;10.40;;;5.00;;
33403;SDS011;19751;40.274;18.268;2024-03-06T10:13:17;6.45;;;4.50;;
33403;SDS011;19751;40.274;18.268;2024-03-06T10:15:56;5.93;;;3.72;;
33403;SDS011;19751;40.274;18.268;2024-03-06T10:18:22;13.18;;;4.38;;
33403;SDS011;19751;40.274;18.268;2024-03-06T10:20:52;10.43;;;4.32;;
33403;SDS011;19751;40.274;18.268;2024-03-06T10:23:18;15.65;;;6.05;;
33403;SDS011;19751;40.274;18.268;2024-03-06T10:25:43;12.77;;;6.63;;
33403;SDS011;19751;40.274;18.268;2024-03-06T10:28:15;9.07;;;5.13;;
33403;SDS011;19751;40.274;18.268;2024-03-06T10:30:42;11.27;;;5.13;;
33403;SDS011;19751;40.274;18.268;2024-03-06T10:33:09;8.18;;;6.05;;
33403;SDS011;19751;40.274;18.268;2024-03-06T10:35:35;12.73;;;4.28;;
33403;SDS011;19751;40.274;18.268;2024-03-06T10:38:03;12.40;;;3.92;;
33403;SDS011;19751;40.274;18.268;2024-03-06T10:40:33;10.07;;;4.35;;
33403;SDS011;19751;40.274;18.268;2024-03-06T10:43:00;8.93;;;6.00;;
33403;SDS011;19751;40.274;18.268;2024-03-06T10:45:34;4.75;;;3.47;;
33403;SDS011;19751;40.274;18.268;2024-03-06T10:48:15;10.27;;;3.92;;
33403;SDS011;19751;40.274;18.268;2024-03-06T10:50:45;10.02;;;4.40;;
33403;SDS011;19751;40.274;18.268;2024-03-06T10:53:13;9.30;;;4.75;;
33403;SDS011;19751;40.274;18.268;2024-03-06T10:55:39;9.48;;;4.65;;
33403;SDS011;19751;40.274;18.268;2024-03-06T10:58:06;9.13;;;3.58;;
33403;SDS011;19751;40.274;18.268;2024-03-06T11:00:45;7.13;;;3.45;;
33403;SDS011;19751;40.274;18.268;2024-03-06T11:03:12;8.40;;;4.25;;
33403;SDS011;19751;40.274;18.268;2024-03-06T11:05:38;8.98;;;4.20;;
33403;SDS011;19751;40.274;18.268;2024-03-06T11:08:08;9.13;;;4.57;;
33403;SDS011;19751;40.274;18.268;2024-03-06T11:10:36;5.40;;;4.30;;
33403;SDS011;19751;40.274;18.268;2024-03-06T11:13:04;7.18;;;3.83;;
33403;SDS011;19751;40.274;18.268;2024-03-06T11:29:29;8.25;;;3.88;;
33403;SDS011;19751;40.274;18.268;2024-03-06T11:32:14;16.27;;;8.27;;
33403;SDS011;19751;40.274;18.268;2024-03-06T11:34:41;10.25;;;4.45;;
33403;SDS011;19751;40.274;18.268;2024-03-06T11:37:07;11.60;;;4.70;;
33403;SDS011;19751;40.274;18.268;2024-03-06T11:39:38;5.63;;;3.95;;
33403;SDS011;19751;40.274;18.268;2024-03-06T11:42:06;10.75;;;6.00;;
33403;SDS011;19751;40.274;18.268;2024-03-06T11:44:33;12.35;;;6.95;;
33403;SDS011;19751;40.274;18.268;2024-03-06T11:47:01;7.78;;;4.68;;
33403;SDS011;19751;40.274;18.268;2024-03-06T11:49:28;10.45;;;4.05;;
33403;SDS011;19751;40.274;18.268;2024-03-06T11:52:01;7.57;;;4.85;;
33403;SDS011;19751;40.274;18.268;2024-03-06T11:54:29;11.10;;;4.32;;
33403;SDS011;19751;40.274;18.268;2024-03-06T11:56:56;6.00;;;4.25;;
33403;SDS011;19751;40.274;18.268;2024-03-06T11:59:24;7.75;;;4.20;;
33403;SDS011;19751;40.274;18.268;2024-03-06T12:01:55;7.45;;;4.78;;
33403;SDS011;19751;40.274;18.268;2024-03-06T12:04:23;6.05;;;3.88;;
33403;SDS011;19751;40.274;18.268;2024-03-06T12:06:49;7.07;;;4.60;;
33403;SDS011;19751;40.274;18.268;2024-03-06T12:09:15;10.77;;;4.68;;
33403;SDS011;19751;40.274;18.268;2024-03-06T12:11:41;7.10;;;2.85;;
33403;SDS011;19751;40.274;18.268;2024-03-06T12:14:14;6.22;;;3.28;;
33403;SDS011;19751;40.274;18.268;2024-03-06T12:16:41;6.85;;;4.13;;
33403;SDS011;19751;40.274;18.268;2024-03-06T12:19:08;10.13;;;3.92;;
33403;SDS011;19751;40.274;18.268;2024-03-06T12:21:34;9.70;;;3.38;;
33403;SDS011;19751;40.274;18.268;2024-03-06T12:24:04;7.15;;;4.43;;
33403;SDS011;19751;40.274;18.268;2024-03-06T12:26:30;8.23;;;3.38;;
33403;SDS011;19751;40.274;18.268;2024-03-06T12:29:05;7.88;;;4.88;;
33403;SDS011;19751;40.274;18.268;2024-03-06T12:31:34;15.63;;;9.85;;
33403;SDS011;19751;40.274;18.268;2024-03-06T12:34:01;14.18;;;6.15;;
33403;SDS011;19751;40.274;18.268;2024-03-06T12:36:29;16.60;;;8.73;;
33403;SDS011;19751;40.274;18.268;2024-03-06T12:38:56;9.45;;;6.53;;
33403;SDS011;19751;40.274;18.268;2024-03-06T12:41:24;10.63;;;3.88;;
33403;SDS011;19751;40.274;18.268;2024-03-06T12:43:51;7.30;;;2.55;;
33403;SDS011;19751;40.274;18.268;2024-03-06T12:46:16;7.32;;;2.92;;
33403;SDS011;19751;40.274;18.268;2024-03-06T12:48:42;5.68;;;2.88;;
33403;SDS011;19751;40.274;18.268;2024-03-06T12:51:07;3.58;;;3.08;;
33403;SDS011;19751;40.274;18.268;2024-03-06T12:53:33;5.28;;;3.10;;
33403;SDS011;19751;40.274;18.268;2024-03-06T12:56:00;3.88;;;3.28;;
33403;SDS011;19751;40.274;18.268;2024-03-06T12:58:26;10.27;;;3.90;;
33403;SDS011;19751;40.274;18.268;2024-03-06T13:00:51;8.00;;;4.60;;
33403;SDS011;19751;40.274;18.268;2024-03-06T13:03:17;5.95;;;2.72;;
33403;SDS011;19751;40.274;18.268;2024-03-06T13:05:43;8.43;;;2.47;;
33403;SDS011;19751;40.274;18.268;2024-03-06T13:08:10;7.80;;;5.30;;
33403;SDS011;19751;40.274;18.268;2024-03-06T13:10:39;6.05;;;2.80;;
33403;SDS011;19751;40.274;18.268;2024-03-06T13:13:04;7.28;;;2.30;;
33403;SDS011;19751;40.274;18.268;2024-03-06T13:15:31;4.43;;;1.88;;
33403;SDS011;19751;40.274;18.268;2024-03-06T13:17:59;5.47;;;2.53;;
33403;SDS011;19751;40.274;18.268;2024-03-06T13:20:28;3.38;;;1.80;;
33403;SDS011;19751;40.274;18.268;2024-03-06T13:22:54;3.25;;;1.48;;
33403;SDS011;19751;40.274;18.268;2024-03-06T13:25:20;3.70;;;1.27;;
33403;SDS011;19751;40.274;18.268;2024-03-06T13:27:46;1.98;;;1.55;;
33403;SDS011;19751;40.274;18.268;2024-03-06T13:30:11;3.42;;;1.40;;
33403;SDS011;19751;40.274;18.268;2024-03-06T13:32:37;2.40;;;1.23;;
33403;SDS011;19751;40.274;18.268;2024-03-06T13:35:03;6.05;;;2.35;;
33403;SDS011;19751;40.274;18.268;2024-03-06T13:37:31;3.15;;;1.73;;
33403;SDS011;19751;40.274;18.268;2024-03-06T13:39:57;124.05;;;12.35;;
33403;SDS011;19751;40.274;18.268;2024-03-06T13:42:28;4.13;;;2.47;;
33403;SDS011;19751;40.274;18.268;2024-03-06T13:44:53;3.25;;;1.90;;
33403;SDS011;19751;40.274;18.268;2024-03-06T13:47:19;5.70;;;2.20;;
33403;SDS011;19751;40.274;18.268;2024-03-06T13:49:44;6.45;;;1.98;;
33403;SDS011;19751;40.274;18.268;2024-03-06T13:52:10;2.92;;;1.95;;
33403;SDS011;19751;40.274;18.268;2024-03-06T13:54:39;2.63;;;2.15;;
33403;SDS011;19751;40.274;18.268;2024-03-06T13:57:06;5.68;;;3.13;;
33403;SDS011;19751;40.274;18.268;2024-03-06T13:59:33;10.23;;;3.35;;
33403;SDS011;19751;40.274;18.268;2024-03-06T14:01:59;5.28;;;2.72;;
33403;SDS011;19751;40.274;18.268;2024-03-06T14:04:26;8.05;;;3.30;;
33403;SDS011;19751;40.274;18.268;2024-03-06T14:06:52;15.07;;;5.75;;
33403;SDS011;19751;40.274;18.268;2024-03-06T14:09:17;9.10;;;3.97;;
33403;SDS011;19751;40.274;18.268;2024-03-06T14:11:43;3.40;;;2.47;;
33403;SDS011;19751;40.274;18.268;2024-03-06T14:14:09;7.78;;;2.33;;
33403;SDS011;19751;40.274;18.268;2024-03-06T14:16:36;11.48;;;2.10;;
33403;SDS011;19751;40.274;18.268;2024-03-06T14:19:02;6.70;;;2.55;;
33403;SDS011;19751;40.274;18.268;2024-03-06T14:21:29;5.78;;;2.25;;
33403;SDS011;19751;40.274;18.268;2024-03-06T14:23:55;5.05;;;2.60;;
33403;SDS011;19751;40.274;18.268;2024-03-06T14:26:20;5.22;;;2.50;;
33403;SDS011;19751;40.274;18.268;2024-03-06T14:28:46;8.70;;;3.80;;
33403;SDS011;19751;40.274;18.268;2024-03-06T14:31:11;4.72;;;2.95;;
33403;SDS011;19751;40.274;18.268;2024-03-06T14:33:40;5.50;;;2.50;;
33403;SDS011;19751;40.274;18.268;2024-03-06T14:36:06;5.93;;;3.15;;